createdAt,value
2019-04-03T00:01:43.826Z,58.00
2019-04-03T00:04:14.606Z,58.50
2019-04-03T00:06:45.047Z,58.40
2019-04-03T00:09:15.792Z,58.40
2019-04-03T00:11:46.471Z,58.40
2019-04-03T00:14:17.914Z,58.40
2019-04-03T00:16:48.514Z,58.40
2019-04-03T00:19:19.256Z,58.60
2019-04-03T00:21:50.642Z,58.70
2019-04-03T00:24:23.066Z,58.80
2019-04-03T00:26:55.510Z,59.30
2019-04-03T00:29:26.243Z,59.30
2019-04-03T00:31:56.857Z,59.70
2019-04-03T00:34:27.547Z,60.40
2019-04-03T00:36:58.311Z,59.80
2019-04-03T00:39:28.994Z,59.80
2019-04-03T00:41:59.665Z,60.50
2019-04-03T00:44:30.348Z,60.30
2019-04-03T00:47:01.851Z,60.40
2019-04-03T00:49:32.833Z,60.80
2019-04-03T00:52:03.349Z,60.80
2019-04-03T00:54:34.246Z,60.90
2019-04-03T00:57:05.249Z,61.10
2019-04-03T00:59:35.871Z,61.40
2019-04-03T01:02:06.430Z,61.60
2019-04-03T01:04:37.121Z,62.20
2019-04-03T01:07:08.093Z,62.30
2019-04-03T01:09:39.295Z,62.40
2019-04-03T01:12:09.925Z,62.30
2019-04-03T01:14:40.894Z,62.30
2019-04-03T01:17:12.953Z,62.30
2019-04-03T01:19:43.859Z,62.30
2019-04-03T01:22:14.636Z,62.80
2019-04-03T01:24:45.236Z,62.30
2019-04-03T01:27:15.873Z,62.30
2019-04-03T01:29:46.559Z,62.70
2019-04-03T01:32:17.020Z,62.80
2019-04-03T01:34:47.976Z,63.10
2019-04-03T01:37:19.413Z,63.20
2019-04-03T01:39:50.899Z,62.90
2019-04-03T01:42:22.901Z,63.20
2019-04-03T01:44:55.457Z,63.30
2019-04-03T01:47:27.821Z,63.80
2019-04-03T01:50:00.072Z,64.40
2019-04-03T01:52:31.840Z,64.30
2019-04-03T01:55:04.094Z,64.40
2019-04-03T01:57:36.797Z,64.60
2019-04-03T02:00:08.225Z,64.00
2019-04-03T02:02:39.481Z,64.30
2019-04-03T02:05:12.726Z,64.50
2019-04-03T02:07:44.718Z,64.40
2019-04-03T02:10:19.405Z,64.60
2019-04-03T02:12:51.277Z,64.40
2019-04-03T02:15:22.330Z,64.10
2019-04-03T02:17:54.985Z,65.20
2019-04-03T02:20:26.779Z,65.10
2019-04-03T02:23:00.420Z,65.40
2019-04-03T02:25:32.123Z,65.30
2019-04-03T02:28:04.023Z,65.40
2019-04-03T02:30:35.044Z,65.40
2019-04-03T02:33:05.842Z,65.60
2019-04-03T02:35:38.944Z,65.80
2019-04-03T02:38:08.539Z,66.00
2019-04-03T02:40:39.302Z,66.00
2019-04-03T02:43:13.652Z,66.20
2019-04-03T02:45:42.299Z,66.20
2019-04-03T02:48:12.842Z,66.20
2019-04-03T02:50:47.630Z,66.60
2019-04-03T02:53:17.178Z,66.80
2019-04-03T02:55:48.860Z,66.80
2019-04-03T02:58:21.954Z,66.70
2019-04-03T03:00:51.709Z,66.90
2019-04-03T03:03:23.766Z,67.30
2019-04-03T03:05:54.565Z,67.00
2019-04-03T03:08:25.129Z,67.00
2019-04-03T03:10:56.898Z,67.20
2019-04-03T03:13:29.275Z,67.50
2019-04-03T03:16:00.452Z,67.50
2019-04-03T03:18:31.289Z,67.60
2019-04-03T03:21:04.391Z,68.00
2019-04-03T03:23:35.442Z,68.20
2019-04-03T03:26:06.594Z,68.00
2019-04-03T03:28:37.308Z,68.60
2019-04-03T03:31:09.654Z,68.70
2019-04-03T03:33:41.765Z,68.80
2019-04-03T03:36:19.847Z,69.60
2019-04-03T03:38:46.202Z,69.20
2019-04-03T03:41:22.094Z,69.30
2019-04-03T03:43:50.174Z,69.20
2019-04-03T03:46:26.455Z,69.20
2019-04-03T03:48:54.881Z,69.40
2019-04-03T03:51:30.123Z,69.40
2019-04-03T03:53:58.241Z,69.60
2019-04-03T03:56:31.252Z,69.80
2019-04-03T03:59:01.436Z,70.50
2019-04-03T04:01:32.687Z,70.10
2019-04-03T04:04:03.516Z,70.10
2019-04-03T04:06:36.278Z,70.10
2019-04-03T04:09:08.391Z,70.10
2019-04-03T04:11:39.969Z,70.30
2019-04-03T04:14:11.674Z,71.30
2019-04-03T04:16:42.999Z,71.10
2019-04-03T04:19:14.005Z,71.20
2019-04-03T04:21:45.242Z,71.40
2019-04-03T04:24:15.972Z,71.60
2019-04-03T04:26:49.632Z,71.80
2019-04-03T04:29:19.079Z,71.80
2019-04-03T04:31:49.927Z,71.70
2019-04-03T04:34:20.558Z,71.80
2019-04-03T04:36:51.248Z,71.80
2019-04-03T04:39:22.919Z,71.30
2019-04-03T04:41:53.652Z,71.00
2019-04-03T04:44:24.244Z,70.80
2019-04-03T04:46:55.418Z,70.40
2019-04-03T04:49:25.916Z,71.10
2019-04-03T04:51:57.581Z,69.80
2019-04-03T04:54:30.108Z,69.10
2019-04-03T04:57:00.916Z,68.60
2019-04-03T04:59:31.653Z,68.90
2019-04-03T05:02:02.210Z,67.90
2019-04-03T05:04:32.801Z,68.20
2019-04-03T05:07:03.449Z,67.00
2019-04-03T05:09:34.802Z,66.50
2019-04-03T05:12:09.347Z,65.30
2019-04-03T05:14:38.426Z,64.70
2019-04-03T05:17:09.444Z,63.10
2019-04-03T05:19:40.662Z,61.90
2019-04-03T05:22:11.478Z,60.90
2019-04-03T05:24:42.972Z,60.20
2019-04-03T05:27:13.675Z,58.70
2019-04-03T05:29:44.437Z,57.40
2019-04-03T05:32:14.957Z,56.60
2019-04-03T05:34:45.379Z,54.60
2019-04-03T05:37:18.099Z,54.40
2019-04-03T05:39:48.773Z,52.60
2019-04-03T05:42:19.426Z,52.90
2019-04-03T05:44:50.148Z,52.40
2019-04-03T05:47:20.898Z,51.20
2019-04-03T05:49:55.575Z,51.30
2019-04-03T05:52:25.425Z,53.70
2019-04-03T05:54:56.582Z,51.90
2019-04-03T05:57:28.895Z,52.30
2019-04-03T06:00:02.295Z,53.80
2019-04-03T06:02:32.581Z,53.40
2019-04-03T06:05:06.061Z,52.30
2019-04-03T06:07:35.892Z,52.50
2019-04-03T06:10:07.262Z,52.00
2019-04-03T06:12:38.389Z,51.50
2019-04-03T06:15:10.337Z,50.30
2019-04-03T06:17:41.894Z,51.00
2019-04-03T06:20:13.019Z,50.10
2019-04-03T06:22:43.880Z,51.20
2019-04-03T06:25:15.710Z,50.50
2019-04-03T06:27:46.570Z,50.50
2019-04-03T06:30:17.908Z,49.30
2019-04-03T06:32:48.744Z,49.50
2019-04-03T06:35:20.507Z,51.40
2019-04-03T06:37:52.818Z,51.50
2019-04-03T06:40:23.491Z,53.00
2019-04-03T06:42:54.246Z,54.20
2019-04-03T06:45:26.130Z,54.00
2019-04-03T06:47:57.764Z,53.00
2019-04-03T06:50:28.459Z,52.80
2019-04-03T06:52:59.123Z,53.40
2019-04-03T06:55:30.679Z,52.10
2019-04-03T06:58:01.363Z,50.20
2019-04-03T07:00:32.501Z,50.90
2019-04-03T07:03:04.010Z,49.50
2019-04-03T07:05:36.338Z,48.30
2019-04-03T07:08:07.151Z,46.70
2019-04-03T07:10:40.279Z,46.40
2019-04-03T07:13:11.306Z,46.30
2019-04-03T07:15:42.005Z,46.90
2019-04-03T07:18:12.850Z,47.10
2019-04-03T07:20:43.718Z,46.10
2019-04-03T07:23:14.430Z,46.70
2019-04-03T07:25:45.121Z,46.80
2019-04-03T07:28:15.580Z,46.50
2019-04-03T07:30:46.694Z,47.40
2019-04-03T07:33:17.491Z,45.20
2019-04-03T07:35:48.107Z,46.10
2019-04-03T07:38:19.769Z,44.70
2019-04-03T07:40:51.771Z,46.00
2019-04-03T07:43:26.294Z,44.90
2019-04-03T07:45:56.671Z,43.50
2019-04-03T07:48:27.506Z,42.60
2019-04-03T07:50:58.430Z,43.00
2019-04-03T07:53:29.041Z,42.90
2019-04-03T07:55:59.802Z,42.80
2019-04-03T07:58:32.493Z,42.70
2019-04-03T08:01:03.858Z,41.20
2019-04-03T08:03:34.329Z,41.40
2019-04-03T08:06:05.194Z,40.40
2019-04-03T08:08:35.965Z,40.30
2019-04-03T08:11:06.533Z,40.20
2019-04-03T08:13:38.147Z,39.90
2019-04-03T08:16:09.263Z,40.20
2019-04-03T08:18:39.827Z,40.00
2019-04-03T08:21:10.517Z,39.30
2019-04-03T08:23:41.065Z,40.00
2019-04-03T08:26:12.224Z,39.90
2019-04-03T08:28:42.901Z,39.40
2019-04-03T08:31:13.489Z,39.00
2019-04-03T08:33:44.244Z,40.30
2019-04-03T08:36:24.063Z,41.10
2019-04-03T08:38:47.541Z,41.70
2019-04-03T08:41:18.263Z,40.70
2019-04-03T08:43:48.952Z,39.80
2019-04-03T08:46:19.928Z,40.40
2019-04-03T08:48:50.746Z,40.60
2019-04-03T08:51:21.458Z,41.00
2019-04-03T08:53:54.064Z,40.10
2019-04-03T08:56:24.358Z,40.60
2019-04-03T08:58:57.325Z,40.00
2019-04-03T09:01:28.457Z,41.50
2019-04-03T09:03:59.186Z,40.40
2019-04-03T09:06:30.336Z,40.90
2019-04-03T09:09:01.296Z,40.30
2019-04-03T09:11:34.031Z,40.80
2019-04-03T09:14:06.164Z,40.70
2019-04-03T09:16:36.982Z,40.40
2019-04-03T09:19:10.226Z,40.20
2019-04-03T09:21:41.075Z,39.40
2019-04-03T09:24:11.965Z,39.60
2019-04-03T09:26:42.586Z,39.80
2019-04-03T09:29:13.747Z,40.50
2019-04-03T09:31:46.429Z,39.60
2019-04-03T09:34:17.201Z,39.50
2019-04-03T09:36:48.122Z,38.70
2019-04-03T09:39:18.715Z,39.40
2019-04-03T09:41:50.903Z,39.70
2019-04-03T09:44:24.645Z,39.50
2019-04-03T09:46:54.058Z,40.10
2019-04-03T09:49:26.662Z,40.60
2019-04-03T09:51:57.390Z,40.60
2019-04-03T09:54:28.770Z,40.10
2019-04-03T09:57:04.470Z,39.10
2019-04-03T09:59:32.157Z,39.30
2019-04-03T10:02:03.428Z,40.50
2019-04-03T10:04:34.311Z,41.00
2019-04-03T10:07:05.604Z,41.30
2019-04-03T10:09:38.467Z,41.60
2019-04-03T10:12:09.272Z,41.60
2019-04-03T10:14:40.323Z,42.10
2019-04-03T10:17:11.616Z,42.10
2019-04-03T10:19:44.752Z,42.30
2019-04-03T10:22:15.204Z,41.30
2019-04-03T10:24:46.140Z,40.80
2019-04-03T10:27:18.092Z,41.00
2019-04-03T10:29:50.228Z,40.60
2019-04-03T10:32:21.374Z,40.90
2019-04-03T10:34:52.284Z,40.10
2019-04-03T10:37:23.424Z,40.30
2019-04-03T10:39:57.000Z,39.60
2019-04-03T10:42:29.231Z,39.90
2019-04-03T10:45:01.081Z,39.90
2019-04-03T10:47:41.104Z,39.40
2019-04-03T10:50:05.435Z,39.50
2019-04-03T10:52:37.631Z,39.20
2019-04-03T10:55:09.146Z,38.60
2019-04-03T10:57:39.684Z,37.80
2019-04-03T11:00:12.463Z,38.00
2019-04-03T11:02:43.100Z,37.90
2019-04-03T11:05:14.588Z,38.00
2019-04-03T11:07:45.327Z,38.10
2019-04-03T11:10:16.211Z,37.70
2019-04-03T11:12:47.031Z,38.30
2019-04-03T11:15:18.170Z,37.10
2019-04-03T11:17:50.002Z,36.80
2019-04-03T11:20:20.986Z,36.70
2019-04-03T11:23:04.306Z,36.60
2019-04-03T11:25:24.160Z,36.40
2019-04-03T11:27:55.026Z,36.30
2019-04-03T11:30:26.414Z,35.80
2019-04-03T11:32:57.349Z,35.80
2019-04-03T11:35:28.059Z,35.80
2019-04-03T11:37:58.580Z,35.70
2019-04-03T11:40:30.692Z,35.20
2019-04-03T11:43:01.593Z,35.30
2019-04-03T11:45:32.649Z,35.10
2019-04-03T11:48:03.610Z,35.30
2019-04-03T11:50:34.646Z,35.00
2019-04-03T11:53:07.616Z,34.80
2019-04-03T11:55:37.944Z,34.80
2019-04-03T11:58:08.836Z,35.40
2019-04-03T12:00:45.597Z,35.00
2019-04-03T12:03:16.554Z,35.30
2019-04-03T12:05:47.555Z,34.60
2019-04-03T12:08:20.574Z,34.80
2019-04-03T12:10:51.332Z,35.50
2019-04-03T12:13:22.103Z,35.30
2019-04-03T12:15:56.203Z,35.40
2019-04-03T12:18:25.804Z,34.00
2019-04-03T12:20:56.778Z,34.50
2019-04-03T12:23:27.810Z,33.60
2019-04-03T12:25:59.088Z,33.50
2019-04-03T12:28:32.770Z,34.10
2019-04-03T12:31:02.780Z,34.20
2019-04-03T12:33:33.774Z,35.10
2019-04-03T12:36:06.520Z,34.80
2019-04-03T12:38:36.974Z,34.60
2019-04-03T12:41:09.285Z,34.40
2019-04-03T12:43:40.072Z,34.20
2019-04-03T12:46:10.546Z,33.70
2019-04-03T12:48:41.138Z,33.70
2019-04-03T12:51:12.155Z,33.60
2019-04-03T12:53:42.846Z,33.60
2019-04-03T12:56:13.319Z,33.60
2019-04-03T12:58:44.174Z,33.80
2019-04-03T13:01:15.350Z,33.70
2019-04-03T13:03:46.712Z,33.80
2019-04-03T13:06:17.236Z,32.80
2019-04-03T13:08:47.859Z,33.00
2019-04-03T13:11:19.910Z,32.90
2019-04-03T13:13:51.448Z,32.60
2019-04-03T13:16:22.587Z,32.50
2019-04-03T13:18:53.243Z,33.00
2019-04-03T13:21:23.843Z,32.00
2019-04-03T13:23:55.266Z,33.10
2019-04-03T13:26:27.319Z,33.00
2019-04-03T13:28:57.971Z,32.90
2019-04-03T13:31:28.535Z,33.00
2019-04-03T13:33:59.127Z,32.00
2019-04-03T13:36:29.938Z,32.10
2019-04-03T13:39:01.509Z,32.20
2019-04-03T13:41:34.795Z,33.00
2019-04-03T13:44:07.237Z,32.90
2019-04-03T13:46:38.097Z,33.60
2019-04-03T13:49:08.863Z,33.20
2019-04-03T13:51:39.580Z,32.50
2019-04-03T13:54:10.462Z,33.00
2019-04-03T13:56:43.047Z,32.50
2019-04-03T13:59:13.526Z,32.60
2019-04-03T14:01:45.338Z,32.30
2019-04-03T14:04:16.060Z,32.10
2019-04-03T14:06:48.414Z,32.50
2019-04-03T14:09:19.564Z,32.50
2019-04-03T14:11:50.440Z,32.70
2019-04-03T14:14:22.434Z,32.90
2019-04-03T14:16:54.827Z,32.90
2019-04-03T14:19:25.944Z,33.10
2019-04-03T14:21:58.725Z,33.20
2019-04-03T14:24:39.303Z,33.40
2019-04-03T14:27:02.318Z,33.40
2019-04-03T14:29:33.737Z,33.40
2019-04-03T14:32:04.460Z,33.80
2019-04-03T14:34:35.542Z,34.10
2019-04-03T14:37:06.327Z,34.50
2019-04-03T14:39:39.484Z,34.60
2019-04-03T14:42:09.552Z,34.80
2019-04-03T14:44:41.675Z,35.00
2019-04-03T14:47:13.661Z,34.90
2019-04-03T14:49:44.171Z,34.90
2019-04-03T14:52:15.024Z,35.20
2019-04-03T14:54:47.179Z,35.80
2019-04-03T14:57:22.664Z,35.50
2019-04-03T14:59:51.933Z,35.70
2019-04-03T15:02:23.746Z,36.30
2019-04-03T15:04:54.732Z,35.70
2019-04-03T15:07:25.461Z,35.70
2019-04-03T15:09:57.220Z,35.70
2019-04-03T15:12:29.116Z,35.50
2019-04-03T15:15:00.697Z,35.60
2019-04-03T15:17:34.117Z,35.10
2019-04-03T15:20:07.101Z,35.20
2019-04-03T15:22:38.128Z,35.50
2019-04-03T15:25:09.011Z,35.70
2019-04-03T15:27:39.609Z,36.00
2019-04-03T15:30:11.902Z,36.20
2019-04-03T15:32:43.461Z,36.70
2019-04-03T15:35:14.800Z,36.80
2019-04-03T15:37:46.003Z,37.60
2019-04-03T15:40:18.527Z,37.00
2019-04-03T15:42:49.255Z,37.00
2019-04-03T15:45:24.173Z,37.10
2019-04-03T15:47:55.251Z,37.20
2019-04-03T15:50:27.449Z,37.80
2019-04-03T15:52:57.454Z,37.80
2019-04-03T15:55:28.783Z,37.80
2019-04-03T15:57:59.510Z,37.70
2019-04-03T16:00:30.587Z,37.70
2019-04-03T16:03:01.388Z,38.20
2019-04-03T16:05:35.626Z,38.00
2019-04-03T16:08:05.192Z,38.20
2019-04-03T16:10:36.214Z,38.00
2019-04-03T16:13:07.144Z,38.30
2019-04-03T16:15:38.917Z,38.50
2019-04-03T16:18:09.535Z,38.80
2019-04-03T16:20:40.378Z,39.10
2019-04-03T16:23:12.835Z,39.00
2019-04-03T16:25:43.498Z,39.00
2019-04-03T16:28:14.305Z,39.00
2019-04-03T16:30:48.777Z,39.00
2019-04-03T16:33:21.514Z,39.00
2019-04-03T16:35:50.299Z,39.40
2019-04-03T16:38:21.818Z,39.40
2019-04-03T16:40:53.191Z,40.00
2019-04-03T16:43:24.194Z,40.10
2019-04-03T16:45:55.023Z,40.30
2019-04-03T16:48:25.688Z,40.50
2019-04-03T16:50:58.932Z,40.70
2019-04-03T16:53:28.838Z,40.90
2019-04-03T16:56:00.014Z,40.80
2019-04-03T16:58:31.077Z,41.00
2019-04-03T17:01:01.600Z,41.40
2019-04-03T17:03:33.765Z,41.60
2019-04-03T17:06:04.405Z,41.60
2019-04-03T17:08:35.126Z,41.50
2019-04-03T17:11:06.171Z,41.50
2019-04-03T17:13:37.346Z,41.50
2019-04-03T17:16:07.868Z,41.90
2019-04-03T17:18:38.500Z,42.20
2019-04-03T17:21:08.949Z,42.50
2019-04-03T17:23:39.946Z,42.80
2019-04-03T17:26:10.904Z,42.90
2019-04-03T17:28:41.942Z,43.20
2019-04-03T17:31:13.726Z,43.60
2019-04-03T17:33:44.517Z,43.70
2019-04-03T17:36:17.196Z,43.90
2019-04-03T17:38:48.063Z,44.00
2019-04-03T17:41:19.173Z,44.30
2019-04-03T17:43:51.493Z,44.20
2019-04-03T17:46:22.225Z,44.60
2019-04-03T17:48:55.275Z,44.80
2019-04-03T17:51:26.371Z,44.90
2019-04-03T17:53:57.246Z,44.90
2019-04-03T17:56:28.189Z,45.20
2019-04-03T17:58:59.315Z,45.20
2019-04-03T18:01:29.844Z,45.50
2019-04-03T18:04:00.623Z,45.50
2019-04-03T18:06:31.539Z,45.70
2019-04-03T18:09:04.019Z,45.90
2019-04-03T18:11:35.204Z,46.20
2019-04-03T18:14:06.145Z,46.30
2019-04-03T18:16:37.049Z,46.40
2019-04-03T18:19:07.921Z,46.40
2019-04-03T18:21:38.746Z,46.50
2019-04-03T18:24:09.648Z,46.60
2019-04-03T18:26:40.331Z,46.70
2019-04-03T18:29:11.373Z,47.10
2019-04-03T18:31:44.315Z,47.20
2019-04-03T18:34:15.386Z,47.40
2019-04-03T18:36:46.343Z,47.50
2019-04-03T18:39:17.178Z,47.60
2019-04-03T18:41:48.308Z,47.70
2019-04-03T18:44:22.367Z,47.80
2019-04-03T18:46:51.831Z,48.10
2019-04-03T18:49:22.655Z,48.20
2019-04-03T18:51:53.804Z,48.50
2019-04-03T18:54:24.861Z,48.80
2019-04-03T18:56:55.472Z,48.70
2019-04-03T18:59:26.535Z,48.80
2019-04-03T19:01:57.501Z,49.00
2019-04-03T19:04:28.692Z,49.40
2019-04-03T19:06:59.544Z,49.40
2019-04-03T19:09:30.215Z,49.60
2019-04-03T19:12:08.324Z,50.00
2019-04-03T19:14:33.381Z,49.90
2019-04-03T19:17:04.768Z,50.40
2019-04-03T19:19:36.528Z,51.80
2019-04-03T19:22:07.297Z,50.70
2019-04-03T19:24:38.061Z,50.60
2019-04-03T19:27:09.015Z,50.40
2019-04-03T19:29:39.858Z,50.40
2019-04-03T19:32:12.322Z,50.40
2019-04-03T19:34:42.910Z,50.40
2019-04-03T19:37:13.623Z,50.50
2019-04-03T19:39:44.521Z,50.10
2019-04-03T19:42:15.145Z,50.60
2019-04-03T19:44:47.135Z,50.40
2019-04-03T19:47:18.526Z,50.60
2019-04-03T19:49:49.470Z,50.50
2019-04-03T19:52:20.207Z,50.30
2019-04-03T19:54:51.521Z,50.30
2019-04-03T19:57:22.919Z,50.40
2019-04-03T19:59:53.662Z,50.40
2019-04-03T20:02:24.599Z,50.40
2019-04-03T20:04:55.639Z,50.40
2019-04-03T20:07:27.281Z,50.30
2019-04-03T20:09:58.087Z,50.90
2019-04-03T20:12:29.111Z,50.70
2019-04-03T20:15:02.312Z,50.80
2019-04-03T20:17:34.723Z,51.00
2019-04-03T20:20:06.245Z,51.40
2019-04-03T20:22:37.887Z,51.90
2019-04-03T20:25:09.995Z,52.10
2019-04-03T20:27:40.875Z,52.50
2019-04-03T20:30:11.969Z,52.50
2019-04-03T20:32:42.812Z,52.80
2019-04-03T20:35:13.803Z,52.50
2019-04-03T20:37:44.664Z,52.50
2019-04-03T20:40:15.552Z,52.50
2019-04-03T20:42:46.319Z,52.60
2019-04-03T20:45:19.060Z,52.70
2019-04-03T20:47:49.663Z,52.50
2019-04-03T20:50:24.375Z,52.70
2019-04-03T20:52:56.922Z,53.30
2019-04-03T20:55:27.370Z,53.90
2019-04-03T20:57:57.978Z,54.70
2019-04-03T21:00:28.668Z,56.10
2019-04-03T21:02:59.660Z,55.90
2019-04-03T21:05:30.431Z,56.40
2019-04-03T21:08:01.312Z,56.70
2019-04-03T21:10:32.981Z,57.10
2019-04-03T21:13:03.883Z,57.30
2019-04-03T21:15:34.724Z,57.70
2019-04-03T21:18:06.499Z,57.80
2019-04-03T21:20:37.237Z,58.50
2019-04-03T21:23:07.801Z,59.10
2019-04-03T21:25:40.625Z,59.40
2019-04-03T21:28:10.975Z,59.80
2019-04-03T21:30:42.361Z,60.10
2019-04-03T21:33:13.019Z,60.30
2019-04-03T21:35:43.799Z,61.40
2019-04-03T21:38:14.603Z,61.40
2019-04-03T21:40:46.968Z,61.60
2019-04-03T21:43:17.602Z,61.80
2019-04-03T21:45:48.351Z,61.80
2019-04-03T21:48:20.397Z,62.20
2019-04-03T21:50:51.241Z,62.20
2019-04-03T21:53:24.151Z,62.40
2019-04-03T21:55:54.344Z,62.40
2019-04-03T21:58:24.924Z,62.60
2019-04-03T22:01:21.719Z,62.90
2019-04-03T22:03:53.275Z,63.30
2019-04-03T22:06:26.749Z,63.30
2019-04-03T22:08:59.685Z,63.70
2019-04-03T22:11:28.865Z,63.80
2019-04-03T22:13:59.573Z,64.10
2019-04-03T22:16:30.257Z,64.00
2019-04-03T22:19:00.986Z,63.70
2019-04-03T22:21:32.600Z,63.70
2019-04-03T22:24:06.581Z,63.80
2019-04-03T22:26:35.930Z,63.60
2019-04-03T22:29:06.662Z,63.60
2019-04-03T22:31:37.470Z,63.70
2019-04-03T22:34:08.664Z,63.90
2019-04-03T22:36:39.449Z,63.80
2019-04-03T22:39:13.484Z,64.20
2019-04-03T22:41:43.445Z,64.30
2019-04-03T22:44:16.770Z,64.30
2019-04-03T22:46:46.228Z,64.20
2019-04-03T22:49:16.698Z,64.60
2019-04-03T22:51:47.399Z,64.50
2019-04-03T22:54:18.272Z,64.90
2019-04-03T22:56:48.876Z,65.30
2019-04-03T22:59:19.456Z,65.00
2019-04-03T23:01:50.269Z,64.70
2019-04-03T23:04:21.272Z,65.10
2019-04-03T23:06:52.296Z,65.20
2019-04-03T23:09:25.434Z,65.10
2019-04-03T23:11:55.841Z,65.70
2019-04-03T23:14:26.938Z,66.40
2019-04-03T23:16:58.204Z,66.60
2019-04-03T23:19:32.227Z,66.30
2019-04-03T23:22:02.128Z,66.30
2019-04-03T23:24:32.597Z,66.70
2019-04-03T23:27:03.265Z,67.30
2019-04-03T23:29:36.642Z,67.60
2019-04-03T23:32:06.418Z,67.50
2019-04-03T23:34:37.345Z,67.80
2019-04-03T23:37:07.855Z,68.20
2019-04-03T23:39:38.301Z,68.00
2019-04-03T23:42:08.884Z,67.50
2019-04-03T23:44:41.840Z,66.90
2019-04-03T23:47:11.894Z,66.30
2019-04-03T23:49:42.667Z,65.00
2019-04-03T23:52:13.354Z,64.20
2019-04-03T23:54:44.006Z,63.50
2019-04-03T23:57:14.800Z,62.50
2019-04-03T23:59:45.423Z,62.50
